sensor_id;sensor_type;location;lat;lon;timestamp;P1;durP1;ratioP1;P2;durP2;ratioP2
22417;SDS011;11376;50.932;4.442;2023-05-16T00:00:16;21.33;;;2.37;;
22417;SDS011;11376;50.932;4.442;2023-05-16T00:02:42;19.10;;;2.70;;
22417;SDS011;11376;50.932;4.442;2023-05-16T00:05:08;14.70;;;2.43;;
22417;SDS011;11376;50.932;4.442;2023-05-16T00:07:44;22.03;;;2.33;;
22417;SDS011;11376;50.932;4.442;2023-05-16T00:10:11;22.33;;;2.43;;
22417;SDS011;11376;50.932;4.442;2023-05-16T00:12:38;19.17;;;2.10;;
22417;SDS011;11376;50.932;4.442;2023-05-16T00:15:07;21.40;;;2.03;;
22417;SDS011;11376;50.932;4.442;2023-05-16T00:17:36;16.80;;;2.23;;
22417;SDS011;11376;50.932;4.442;2023-05-16T00:20:02;19.97;;;2.37;;
22417;SDS011;11376;50.932;4.442;2023-05-16T00:22:35;13.40;;;2.20;;
22417;SDS011;11376;50.932;4.442;2023-05-16T00:25:01;18.17;;;2.10;;
22417;SDS011;11376;50.932;4.442;2023-05-16T00:27:28;17.30;;;2.60;;
22417;SDS011;11376;50.932;4.442;2023-05-16T00:29:54;24.50;;;2.60;;
22417;SDS011;11376;50.932;4.442;2023-05-16T00:32:20;23.90;;;2.73;;
22417;SDS011;11376;50.932;4.442;2023-05-16T00:34:47;16.27;;;2.37;;
22417;SDS011;11376;50.932;4.442;2023-05-16T00:37:13;16.53;;;2.70;;
22417;SDS011;11376;50.932;4.442;2023-05-16T00:39:38;22.73;;;2.20;;
22417;SDS011;11376;50.932;4.442;2023-05-16T00:42:04;17.50;;;2.23;;
22417;SDS011;11376;50.932;4.442;2023-05-16T00:44:30;17.93;;;2.17;;
22417;SDS011;11376;50.932;4.442;2023-05-16T00:46:56;16.17;;;2.17;;
22417;SDS011;11376;50.932;4.442;2023-05-16T00:49:24;21.23;;;2.33;;
22417;SDS011;11376;50.932;4.442;2023-05-16T00:51:50;23.00;;;2.60;;
22417;SDS011;11376;50.932;4.442;2023-05-16T00:54:17;17.93;;;2.30;;
22417;SDS011;11376;50.932;4.442;2023-05-16T00:56:46;13.97;;;1.90;;
22417;SDS011;11376;50.932;4.442;2023-05-16T00:59:12;18.10;;;2.57;;
22417;SDS011;11376;50.932;4.442;2023-05-16T01:01:39;20.77;;;2.40;;
22417;SDS011;11376;50.932;4.442;2023-05-16T01:04:08;17.50;;;2.37;;
22417;SDS011;11376;50.932;4.442;2023-05-16T01:06:34;20.77;;;2.07;;
22417;SDS011;11376;50.932;4.442;2023-05-16T01:09:00;17.23;;;2.23;;
22417;SDS011;11376;50.932;4.442;2023-05-16T01:20:02;16.07;;;2.50;;
22417;SDS011;11376;50.932;4.442;2023-05-16T01:28:10;13.00;;;1.97;;
22417;SDS011;11376;50.932;4.442;2023-05-16T01:30:40;17.50;;;2.13;;
22417;SDS011;11376;50.932;4.442;2023-05-16T01:33:06;20.17;;;2.30;;
22417;SDS011;11376;50.932;4.442;2023-05-16T01:35:32;13.17;;;2.10;;
22417;SDS011;11376;50.932;4.442;2023-05-16T01:38:12;10.40;;;1.70;;
22417;SDS011;11376;50.932;4.442;2023-05-16T01:43:29;20.13;;;2.53;;
22417;SDS011;11376;50.932;4.442;2023-05-16T01:46:08;20.70;;;2.43;;
22417;SDS011;11376;50.932;4.442;2023-05-16T01:48:38;22.37;;;2.40;;
22417;SDS011;11376;50.932;4.442;2023-05-16T01:51:17;16.90;;;2.40;;
22417;SDS011;11376;50.932;4.442;2023-05-16T01:53:46;21.20;;;2.50;;
22417;SDS011;11376;50.932;4.442;2023-05-16T01:56:15;21.93;;;2.70;;
22417;SDS011;11376;50.932;4.442;2023-05-16T01:58:41;20.43;;;2.57;;
22417;SDS011;11376;50.932;4.442;2023-05-16T02:01:08;18.07;;;2.40;;
22417;SDS011;11376;50.932;4.442;2023-05-16T02:03:33;19.07;;;2.87;;
22417;SDS011;11376;50.932;4.442;2023-05-16T02:05:59;16.17;;;2.80;;
22417;SDS011;11376;50.932;4.442;2023-05-16T02:08:26;20.83;;;2.50;;
22417;SDS011;11376;50.932;4.442;2023-05-16T02:10:52;16.90;;;2.40;;
22417;SDS011;11376;50.932;4.442;2023-05-16T02:13:18;20.20;;;2.80;;
22417;SDS011;11376;50.932;4.442;2023-05-16T02:15:44;19.20;;;2.40;;
22417;SDS011;11376;50.932;4.442;2023-05-16T02:18:10;17.77;;;2.30;;
22417;SDS011;11376;50.932;4.442;2023-05-16T02:20:36;18.83;;;2.37;;
22417;SDS011;11376;50.932;4.442;2023-05-16T02:23:03;20.70;;;2.60;;
22417;SDS011;11376;50.932;4.442;2023-05-16T02:25:29;20.47;;;2.87;;
22417;SDS011;11376;50.932;4.442;2023-05-16T02:27:55;28.03;;;2.53;;
22417;SDS011;11376;50.932;4.442;2023-05-16T02:30:21;15.33;;;2.43;;
22417;SDS011;11376;50.932;4.442;2023-05-16T02:32:46;16.40;;;2.30;;
22417;SDS011;11376;50.932;4.442;2023-05-16T02:35:13;17.90;;;2.63;;
22417;SDS011;11376;50.932;4.442;2023-05-16T02:37:39;23.17;;;2.70;;
22417;SDS011;11376;50.932;4.442;2023-05-16T02:40:06;15.93;;;2.40;;
22417;SDS011;11376;50.932;4.442;2023-05-16T02:42:33;25.60;;;3.00;;
22417;SDS011;11376;50.932;4.442;2023-05-16T02:44:58;17.43;;;2.87;;
22417;SDS011;11376;50.932;4.442;2023-05-16T02:47:24;14.50;;;2.73;;
22417;SDS011;11376;50.932;4.442;2023-05-16T02:49:50;17.30;;;2.90;;
22417;SDS011;11376;50.932;4.442;2023-05-16T02:52:18;18.03;;;2.77;;
22417;SDS011;11376;50.932;4.442;2023-05-16T02:54:45;22.47;;;3.00;;
22417;SDS011;11376;50.932;4.442;2023-05-16T02:57:10;23.67;;;3.00;;
22417;SDS011;11376;50.932;4.442;2023-05-16T02:59:36;21.03;;;3.50;;
22417;SDS011;11376;50.932;4.442;2023-05-16T03:02:02;24.93;;;3.10;;
22417;SDS011;11376;50.932;4.442;2023-05-16T03:04:28;17.10;;;2.80;;
22417;SDS011;11376;50.932;4.442;2023-05-16T03:06:54;26.17;;;3.23;;
22417;SDS011;11376;50.932;4.442;2023-05-16T03:09:20;26.43;;;3.63;;
22417;SDS011;11376;50.932;4.442;2023-05-16T03:11:46;24.87;;;3.17;;
22417;SDS011;11376;50.932;4.442;2023-05-16T03:14:12;27.97;;;3.77;;
22417;SDS011;11376;50.932;4.442;2023-05-16T03:16:38;25.93;;;3.63;;
22417;SDS011;11376;50.932;4.442;2023-05-16T03:19:05;25.70;;;3.47;;
22417;SDS011;11376;50.932;4.442;2023-05-16T03:21:31;15.40;;;3.17;;
22417;SDS011;11376;50.932;4.442;2023-05-16T03:23:57;27.37;;;3.63;;
22417;SDS011;11376;50.932;4.442;2023-05-16T03:26:26;25.63;;;3.57;;
22417;SDS011;11376;50.932;4.442;2023-05-16T03:28:51;18.10;;;3.50;;
22417;SDS011;11376;50.932;4.442;2023-05-16T03:31:17;22.23;;;3.50;;
22417;SDS011;11376;50.932;4.442;2023-05-16T03:33:43;18.83;;;3.43;;
22417;SDS011;11376;50.932;4.442;2023-05-16T03:36:09;26.57;;;3.93;;
22417;SDS011;11376;50.932;4.442;2023-05-16T03:38:35;21.70;;;3.80;;
22417;SDS011;11376;50.932;4.442;2023-05-16T03:41:01;19.43;;;3.50;;
22417;SDS011;11376;50.932;4.442;2023-05-16T03:43:27;19.73;;;3.67;;
22417;SDS011;11376;50.932;4.442;2023-05-16T03:45:53;19.00;;;3.63;;
22417;SDS011;11376;50.932;4.442;2023-05-16T03:48:19;30.17;;;4.13;;
22417;SDS011;11376;50.932;4.442;2023-05-16T03:50:45;28.93;;;3.73;;
22417;SDS011;11376;50.932;4.442;2023-05-16T03:53:11;23.60;;;4.33;;
22417;SDS011;11376;50.932;4.442;2023-05-16T03:55:37;19.97;;;3.70;;
22417;SDS011;11376;50.932;4.442;2023-05-16T03:58:03;27.90;;;4.43;;
22417;SDS011;11376;50.932;4.442;2023-05-16T04:00:29;21.80;;;4.30;;
22417;SDS011;11376;50.932;4.442;2023-05-16T04:02:55;25.03;;;4.37;;
22417;SDS011;11376;50.932;4.442;2023-05-16T04:05:20;19.80;;;4.43;;
22417;SDS011;11376;50.932;4.442;2023-05-16T04:07:46;22.40;;;3.80;;
22417;SDS011;11376;50.932;4.442;2023-05-16T04:10:12;25.53;;;4.53;;
22417;SDS011;11376;50.932;4.442;2023-05-16T04:12:38;24.63;;;4.47;;
22417;SDS011;11376;50.932;4.442;2023-05-16T04:15:04;20.73;;;4.07;;
22417;SDS011;11376;50.932;4.442;2023-05-16T04:17:31;20.73;;;4.50;;
22417;SDS011;11376;50.932;4.442;2023-05-16T04:19:57;21.30;;;4.83;;
22417;SDS011;11376;50.932;4.442;2023-05-16T04:22:24;23.87;;;5.60;;
22417;SDS011;11376;50.932;4.442;2023-05-16T04:24:50;31.13;;;4.30;;
22417;SDS011;11376;50.932;4.442;2023-05-16T04:27:16;23.17;;;4.47;;
22417;SDS011;11376;50.932;4.442;2023-05-16T04:29:42;19.50;;;4.13;;
22417;SDS011;11376;50.932;4.442;2023-05-16T04:32:08;21.53;;;4.47;;
22417;SDS011;11376;50.932;4.442;2023-05-16T04:34:35;26.77;;;4.47;;
22417;SDS011;11376;50.932;4.442;2023-05-16T04:37:02;28.73;;;4.93;;
22417;SDS011;11376;50.932;4.442;2023-05-16T04:39:29;19.93;;;4.37;;
22417;SDS011;11376;50.932;4.442;2023-05-16T04:41:55;26.43;;;4.63;;
22417;SDS011;11376;50.932;4.442;2023-05-16T04:44:23;23.43;;;4.03;;
22417;SDS011;11376;50.932;4.442;2023-05-16T04:46:52;23.70;;;4.33;;
22417;SDS011;11376;50.932;4.442;2023-05-16T04:49:18;20.80;;;4.23;;
22417;SDS011;11376;50.932;4.442;2023-05-16T04:51:45;23.77;;;4.70;;
22417;SDS011;11376;50.932;4.442;2023-05-16T04:54:11;20.47;;;4.23;;
22417;SDS011;11376;50.932;4.442;2023-05-16T04:56:37;29.17;;;4.23;;
22417;SDS011;11376;50.932;4.442;2023-05-16T04:59:02;23.97;;;4.10;;
22417;SDS011;11376;50.932;4.442;2023-05-16T05:01:29;20.60;;;3.83;;
22417;SDS011;11376;50.932;4.442;2023-05-16T05:03:54;20.30;;;3.50;;
22417;SDS011;11376;50.932;4.442;2023-05-16T05:06:20;21.00;;;3.90;;
22417;SDS011;11376;50.932;4.442;2023-05-16T05:08:46;22.63;;;3.50;;
22417;SDS011;11376;50.932;4.442;2023-05-16T05:11:12;25.60;;;3.80;;
22417;SDS011;11376;50.932;4.442;2023-05-16T05:13:38;21.97;;;3.37;;
22417;SDS011;11376;50.932;4.442;2023-05-16T05:16:04;15.87;;;3.40;;
22417;SDS011;11376;50.932;4.442;2023-05-16T05:18:30;19.47;;;3.13;;
22417;SDS011;11376;50.932;4.442;2023-05-16T05:20:56;18.93;;;2.90;;
22417;SDS011;11376;50.932;4.442;2023-05-16T05:23:22;15.20;;;2.87;;
22417;SDS011;11376;50.932;4.442;2023-05-16T05:25:49;17.17;;;2.90;;
22417;SDS011;11376;50.932;4.442;2023-05-16T05:28:14;18.97;;;2.83;;
22417;SDS011;11376;50.932;4.442;2023-05-16T05:30:40;15.13;;;2.77;;
22417;SDS011;11376;50.932;4.442;2023-05-16T05:33:06;20.40;;;2.97;;
22417;SDS011;11376;50.932;4.442;2023-05-16T05:35:32;19.57;;;3.30;;
22417;SDS011;11376;50.932;4.442;2023-05-16T05:37:58;13.37;;;2.50;;
22417;SDS011;11376;50.932;4.442;2023-05-16T05:40:24;18.93;;;2.87;;
22417;SDS011;11376;50.932;4.442;2023-05-16T05:42:50;19.17;;;2.90;;
22417;SDS011;11376;50.932;4.442;2023-05-16T05:45:16;17.57;;;2.67;;
22417;SDS011;11376;50.932;4.442;2023-05-16T05:47:42;22.83;;;2.33;;
22417;SDS011;11376;50.932;4.442;2023-05-16T05:50:08;14.20;;;2.67;;
22417;SDS011;11376;50.932;4.442;2023-05-16T05:52:38;14.30;;;2.50;;
22417;SDS011;11376;50.932;4.442;2023-05-16T05:55:04;21.53;;;2.63;;
22417;SDS011;11376;50.932;4.442;2023-05-16T05:57:30;12.97;;;2.50;;
22417;SDS011;11376;50.932;4.442;2023-05-16T05:59:56;14.33;;;2.57;;
22417;SDS011;11376;50.932;4.442;2023-05-16T06:02:22;22.67;;;2.70;;
22417;SDS011;11376;50.932;4.442;2023-05-16T06:04:48;14.70;;;2.43;;
22417;SDS011;11376;50.932;4.442;2023-05-16T06:07:14;17.00;;;2.37;;
22417;SDS011;11376;50.932;4.442;2023-05-16T06:09:41;15.20;;;2.47;;
22417;SDS011;11376;50.932;4.442;2023-05-16T06:12:07;10.80;;;2.27;;
22417;SDS011;11376;50.932;4.442;2023-05-16T06:14:33;14.50;;;2.23;;
22417;SDS011;11376;50.932;4.442;2023-05-16T06:16:59;18.60;;;2.37;;
22417;SDS011;11376;50.932;4.442;2023-05-16T06:19:25;12.37;;;2.20;;
22417;SDS011;11376;50.932;4.442;2023-05-16T06:21:50;13.77;;;2.27;;
22417;SDS011;11376;50.932;4.442;2023-05-16T06:24:16;19.00;;;1.97;;
22417;SDS011;11376;50.932;4.442;2023-05-16T06:26:42;13.67;;;1.83;;
22417;SDS011;11376;50.932;4.442;2023-05-16T06:29:10;9.10;;;2.00;;
22417;SDS011;11376;50.932;4.442;2023-05-16T06:31:35;15.00;;;2.10;;
22417;SDS011;11376;50.932;4.442;2023-05-16T06:41:18;12.87;;;1.80;;
22417;SDS011;11376;50.932;4.442;2023-05-16T06:43:45;16.13;;;2.00;;
22417;SDS011;11376;50.932;4.442;2023-05-16T06:46:11;16.77;;;2.00;;
22417;SDS011;11376;50.932;4.442;2023-05-16T06:48:36;11.20;;;1.60;;
22417;SDS011;11376;50.932;4.442;2023-05-16T06:51:02;12.00;;;1.70;;
22417;SDS011;11376;50.932;4.442;2023-05-16T06:53:28;15.03;;;1.80;;
22417;SDS011;11376;50.932;4.442;2023-05-16T06:55:54;9.00;;;1.13;;
22417;SDS011;11376;50.932;4.442;2023-05-16T06:58:20;8.07;;;1.00;;
22417;SDS011;11376;50.932;4.442;2023-05-16T07:00:47;6.80;;;1.43;;
22417;SDS011;11376;50.932;4.442;2023-05-16T07:03:14;8.93;;;1.40;;
22417;SDS011;11376;50.932;4.442;2023-05-16T07:05:39;10.73;;;1.20;;
22417;SDS011;11376;50.932;4.442;2023-05-16T07:08:07;9.97;;;1.60;;
22417;SDS011;11376;50.932;4.442;2023-05-16T07:10:34;11.73;;;1.27;;
22417;SDS011;11376;50.932;4.442;2023-05-16T07:13:00;10.90;;;1.10;;
22417;SDS011;11376;50.932;4.442;2023-05-16T07:15:26;10.27;;;1.20;;
22417;SDS011;11376;50.932;4.442;2023-05-16T07:17:52;9.93;;;1.53;;
22417;SDS011;11376;50.932;4.442;2023-05-16T07:20:18;7.23;;;1.23;;
22417;SDS011;11376;50.932;4.442;2023-05-16T07:22:43;12.80;;;1.30;;
22417;SDS011;11376;50.932;4.442;2023-05-16T07:25:09;9.77;;;1.17;;
22417;SDS011;11376;50.932;4.442;2023-05-16T07:27:39;6.27;;;1.10;;
22417;SDS011;11376;50.932;4.442;2023-05-16T07:30:06;4.87;;;0.90;;
22417;SDS011;11376;50.932;4.442;2023-05-16T07:32:33;11.57;;;1.40;;
22417;SDS011;11376;50.932;4.442;2023-05-16T07:34:59;9.93;;;1.43;;
22417;SDS011;11376;50.932;4.442;2023-05-16T07:37:25;8.00;;;1.40;;
22417;SDS011;11376;50.932;4.442;2023-05-16T07:39:51;10.30;;;1.70;;
22417;SDS011;11376;50.932;4.442;2023-05-16T07:42:16;10.93;;;1.40;;
22417;SDS011;11376;50.932;4.442;2023-05-16T07:44:42;9.27;;;1.50;;
22417;SDS011;11376;50.932;4.442;2023-05-16T07:47:09;13.63;;;1.60;;
22417;SDS011;11376;50.932;4.442;2023-05-16T07:49:34;16.37;;;1.57;;
22417;SDS011;11376;50.932;4.442;2023-05-16T07:52:00;6.93;;;1.10;;
22417;SDS011;11376;50.932;4.442;2023-05-16T07:54:26;7.43;;;1.37;;
22417;SDS011;11376;50.932;4.442;2023-05-16T07:56:52;10.90;;;1.33;;
22417;SDS011;11376;50.932;4.442;2023-05-16T07:59:17;6.40;;;1.30;;
22417;SDS011;11376;50.932;4.442;2023-05-16T08:01:43;10.03;;;1.60;;
22417;SDS011;11376;50.932;4.442;2023-05-16T08:04:09;15.07;;;1.47;;
22417;SDS011;11376;50.932;4.442;2023-05-16T08:06:35;9.93;;;1.57;;
22417;SDS011;11376;50.932;4.442;2023-05-16T08:09:01;14.37;;;1.70;;
22417;SDS011;11376;50.932;4.442;2023-05-16T08:11:27;9.57;;;1.43;;
22417;SDS011;11376;50.932;4.442;2023-05-16T08:13:52;9.13;;;1.20;;
22417;SDS011;11376;50.932;4.442;2023-05-16T08:16:18;11.57;;;1.40;;
22417;SDS011;11376;50.932;4.442;2023-05-16T08:18:44;10.10;;;1.40;;
22417;SDS011;11376;50.932;4.442;2023-05-16T08:21:10;11.53;;;1.47;;
22417;SDS011;11376;50.932;4.442;2023-05-16T08:23:35;9.90;;;1.40;;
22417;SDS011;11376;50.932;4.442;2023-05-16T08:26:01;6.70;;;1.30;;
22417;SDS011;11376;50.932;4.442;2023-05-16T08:28:27;7.67;;;1.20;;
22417;SDS011;11376;50.932;4.442;2023-05-16T08:30:53;10.20;;;1.27;;
22417;SDS011;11376;50.932;4.442;2023-05-16T08:33:19;7.57;;;1.30;;
22417;SDS011;11376;50.932;4.442;2023-05-16T08:35:45;8.00;;;1.20;;
22417;SDS011;11376;50.932;4.442;2023-05-16T08:38:13;6.20;;;1.30;;
22417;SDS011;11376;50.932;4.442;2023-05-16T08:40:39;4.60;;;1.00;;
22417;SDS011;11376;50.932;4.442;2023-05-16T08:43:05;7.13;;;1.03;;
22417;SDS011;11376;50.932;4.442;2023-05-16T08:45:31;5.80;;;1.13;;
22417;SDS011;11376;50.932;4.442;2023-05-16T08:47:58;5.53;;;0.90;;
22417;SDS011;11376;50.932;4.442;2023-05-16T08:50:25;7.20;;;1.10;;
22417;SDS011;11376;50.932;4.442;2023-05-16T08:52:55;6.88;;;1.00;;
22417;SDS011;11376;50.932;4.442;2023-05-16T08:55:21;5.88;;;1.20;;
22417;SDS011;11376;50.932;4.442;2023-05-16T08:57:49;2.88;;;0.73;;
22417;SDS011;11376;50.932;4.442;2023-05-16T09:00:16;8.80;;;1.15;;
22417;SDS011;11376;50.932;4.442;2023-05-16T09:02:43;4.68;;;0.65;;
22417;SDS011;11376;50.932;4.442;2023-05-16T09:05:10;7.05;;;1.08;;
22417;SDS011;11376;50.932;4.442;2023-05-16T09:07:37;8.02;;;1.00;;
22417;SDS011;11376;50.932;4.442;2023-05-16T09:10:04;9.15;;;0.95;;
22417;SDS011;11376;50.932;4.442;2023-05-16T09:12:31;10.20;;;1.10;;
22417;SDS011;11376;50.932;4.442;2023-05-16T09:14:58;8.80;;;1.25;;
22417;SDS011;11376;50.932;4.442;2023-05-16T09:17:26;6.22;;;1.40;;
22417;SDS011;11376;50.932;4.442;2023-05-16T09:20:00;7.82;;;1.10;;
22417;SDS011;11376;50.932;4.442;2023-05-16T09:22:33;7.45;;;1.23;;
22417;SDS011;11376;50.932;4.442;2023-05-16T09:24:59;10.32;;;1.35;;
22417;SDS011;11376;50.932;4.442;2023-05-16T09:27:24;8.13;;;0.90;;
22417;SDS011;11376;50.932;4.442;2023-05-16T09:29:50;10.65;;;1.45;;
22417;SDS011;11376;50.932;4.442;2023-05-16T09:32:16;6.45;;;0.98;;
22417;SDS011;11376;50.932;4.442;2023-05-16T09:34:43;12.38;;;1.38;;
22417;SDS011;11376;50.932;4.442;2023-05-16T09:37:10;9.18;;;1.10;;
22417;SDS011;11376;50.932;4.442;2023-05-16T09:39:45;9.98;;;1.42;;
22417;SDS011;11376;50.932;4.442;2023-05-16T09:42:17;7.57;;;1.30;;
22417;SDS011;11376;50.932;4.442;2023-05-16T09:44:53;10.85;;;1.27;;
22417;SDS011;11376;50.932;4.442;2023-05-16T09:47:21;9.45;;;1.27;;
22417;SDS011;11376;50.932;4.442;2023-05-16T09:49:50;6.75;;;1.23;;
22417;SDS011;11376;50.932;4.442;2023-05-16T09:52:17;6.35;;;1.10;;
22417;SDS011;11376;50.932;4.442;2023-05-16T09:54:44;10.38;;;1.10;;
22417;SDS011;11376;50.932;4.442;2023-05-16T09:57:17;7.57;;;1.20;;
22417;SDS011;11376;50.932;4.442;2023-05-16T09:59:44;5.85;;;1.25;;
22417;SDS011;11376;50.932;4.442;2023-05-16T10:02:09;6.50;;;1.30;;
22417;SDS011;11376;50.932;4.442;2023-05-16T10:04:37;9.50;;;1.10;;
22417;SDS011;11376;50.932;4.442;2023-05-16T10:07:03;8.15;;;1.10;;
22417;SDS011;11376;50.932;4.442;2023-05-16T10:09:33;5.20;;;0.90;;
22417;SDS011;11376;50.932;4.442;2023-05-16T10:12:00;5.53;;;1.02;;
22417;SDS011;11376;50.932;4.442;2023-05-16T10:14:28;8.15;;;1.23;;
22417;SDS011;11376;50.932;4.442;2023-05-16T10:16:58;6.53;;;0.90;;
22417;SDS011;11376;50.932;4.442;2023-05-16T10:19:25;6.55;;;1.23;;
22417;SDS011;11376;50.932;4.442;2023-05-16T10:21:56;8.27;;;1.00;;
22417;SDS011;11376;50.932;4.442;2023-05-16T10:24:47;6.38;;;1.17;;
22417;SDS011;11376;50.932;4.442;2023-05-16T10:27:25;7.97;;;0.93;;
22417;SDS011;11376;50.932;4.442;2023-05-16T10:29:52;9.15;;;1.05;;
22417;SDS011;11376;50.932;4.442;2023-05-16T10:32:19;6.38;;;1.00;;
22417;SDS011;11376;50.932;4.442;2023-05-16T10:34:47;6.07;;;1.10;;
22417;SDS011;11376;50.932;4.442;2023-05-16T10:37:13;5.00;;;0.85;;
22417;SDS011;11376;50.932;4.442;2023-05-16T10:39:38;4.82;;;0.93;;
22417;SDS011;11376;50.932;4.442;2023-05-16T10:42:05;8.10;;;1.10;;
22417;SDS011;11376;50.932;4.442;2023-05-16T10:44:31;6.72;;;0.90;;
22417;SDS011;11376;50.932;4.442;2023-05-16T10:46:58;6.45;;;1.10;;
22417;SDS011;11376;50.932;4.442;2023-05-16T10:49:25;9.27;;;0.88;;
22417;SDS011;11376;50.932;4.442;2023-05-16T10:52:13;7.18;;;0.95;;
22417;SDS011;11376;50.932;4.442;2023-05-16T10:54:45;6.03;;;1.13;;
22417;SDS011;11376;50.932;4.442;2023-05-16T10:57:16;7.65;;;0.90;;
22417;SDS011;11376;50.932;4.442;2023-05-16T10:59:47;8.48;;;1.10;;
22417;SDS011;11376;50.932;4.442;2023-05-16T11:02:21;5.63;;;0.90;;
22417;SDS011;11376;50.932;4.442;2023-05-16T11:04:48;6.95;;;0.90;;
22417;SDS011;11376;50.932;4.442;2023-05-16T11:07:16;7.25;;;0.95;;
22417;SDS011;11376;50.932;4.442;2023-05-16T11:09:43;5.03;;;0.88;;
22417;SDS011;11376;50.932;4.442;2023-05-16T11:12:10;7.25;;;0.90;;
22417;SDS011;11376;50.932;4.442;2023-05-16T11:14:38;9.40;;;1.23;;
22417;SDS011;11376;50.932;4.442;2023-05-16T11:17:07;7.38;;;1.00;;
22417;SDS011;11376;50.932;4.442;2023-05-16T11:19:42;6.50;;;0.90;;
22417;SDS011;11376;50.932;4.442;2023-05-16T11:22:11;5.85;;;1.00;;
22417;SDS011;11376;50.932;4.442;2023-05-16T11:32:35;8.35;;;1.10;;
22417;SDS011;11376;50.932;4.442;2023-05-16T11:35:02;4.72;;;1.00;;
22417;SDS011;11376;50.932;4.442;2023-05-16T11:37:29;5.20;;;0.90;;
22417;SDS011;11376;50.932;4.442;2023-05-16T11:39:59;5.45;;;0.93;;
22417;SDS011;11376;50.932;4.442;2023-05-16T11:42:33;5.60;;;1.00;;
22417;SDS011;11376;50.932;4.442;2023-05-16T11:45:15;9.10;;;1.30;;
22417;SDS011;11376;50.932;4.442;2023-05-16T11:47:43;7.43;;;1.20;;
22417;SDS011;11376;50.932;4.442;2023-05-16T11:50:10;6.22;;;1.20;;
22417;SDS011;11376;50.932;4.442;2023-05-16T11:52:47;6.18;;;0.77;;
22417;SDS011;11376;50.932;4.442;2023-05-16T11:55:19;4.95;;;0.90;;
22417;SDS011;11376;50.932;4.442;2023-05-16T11:57:47;4.65;;;0.90;;
22417;SDS011;11376;50.932;4.442;2023-05-16T12:00:16;5.55;;;1.10;;
22417;SDS011;11376;50.932;4.442;2023-05-16T12:02:47;4.40;;;0.80;;
22417;SDS011;11376;50.932;4.442;2023-05-16T12:05:14;5.30;;;1.13;;
22417;SDS011;11376;50.932;4.442;2023-05-16T12:07:44;5.25;;;0.93;;
22417;SDS011;11376;50.932;4.442;2023-05-16T12:10:11;5.07;;;1.10;;
22417;SDS011;11376;50.932;4.442;2023-05-16T12:12:39;6.47;;;1.23;;
22417;SDS011;11376;50.932;4.442;2023-05-16T12:15:09;6.75;;;1.02;;
22417;SDS011;11376;50.932;4.442;2023-05-16T12:17:38;7.45;;;1.13;;
22417;SDS011;11376;50.932;4.442;2023-05-16T12:20:05;4.32;;;0.80;;
22417;SDS011;11376;50.932;4.442;2023-05-16T12:22:39;5.47;;;0.98;;
22417;SDS011;11376;50.932;4.442;2023-05-16T12:27:51;6.82;;;0.90;;
22417;SDS011;11376;50.932;4.442;2023-05-16T12:30:20;6.55;;;1.35;;
22417;SDS011;11376;50.932;4.442;2023-05-16T12:33:00;5.47;;;0.98;;
22417;SDS011;11376;50.932;4.442;2023-05-16T12:35:28;5.63;;;0.82;;
22417;SDS011;11376;50.932;4.442;2023-05-16T12:37:56;6.28;;;0.95;;
22417;SDS011;11376;50.932;4.442;2023-05-16T12:40:22;5.38;;;0.75;;
22417;SDS011;11376;50.932;4.442;2023-05-16T12:42:48;4.13;;;0.90;;
22417;SDS011;11376;50.932;4.442;2023-05-16T12:45:16;6.40;;;1.08;;
22417;SDS011;11376;50.932;4.442;2023-05-16T12:47:42;6.32;;;1.00;;
22417;SDS011;11376;50.932;4.442;2023-05-16T12:50:09;5.07;;;0.85;;
22417;SDS011;11376;50.932;4.442;2023-05-16T12:52:51;5.00;;;0.90;;
22417;SDS011;11376;50.932;4.442;2023-05-16T12:55:19;6.15;;;1.10;;
22417;SDS011;11376;50.932;4.442;2023-05-16T12:57:46;5.20;;;1.00;;
22417;SDS011;11376;50.932;4.442;2023-05-16T13:00:13;7.03;;;1.00;;
22417;SDS011;11376;50.932;4.442;2023-05-16T13:02:40;8.25;;;1.00;;
22417;SDS011;11376;50.932;4.442;2023-05-16T13:05:06;3.42;;;0.98;;
22417;SDS011;11376;50.932;4.442;2023-05-16T13:07:33;5.70;;;1.00;;
22417;SDS011;11376;50.932;4.442;2023-05-16T13:09:59;5.45;;;0.73;;
22417;SDS011;11376;50.932;4.442;2023-05-16T13:12:25;5.50;;;1.00;;
22417;SDS011;11376;50.932;4.442;2023-05-16T13:14:54;6.45;;;1.00;;
22417;SDS011;11376;50.932;4.442;2023-05-16T13:17:20;4.88;;;0.98;;
22417;SDS011;11376;50.932;4.442;2023-05-16T13:19:47;5.90;;;1.10;;
22417;SDS011;11376;50.932;4.442;2023-05-16T13:22:14;3.97;;;0.88;;
22417;SDS011;11376;50.932;4.442;2023-05-16T13:24:40;4.88;;;0.90;;
22417;SDS011;11376;50.932;4.442;2023-05-16T13:27:05;6.63;;;1.25;;
22417;SDS011;11376;50.932;4.442;2023-05-16T13:29:31;7.32;;;0.90;;
22417;SDS011;11376;50.932;4.442;2023-05-16T13:31:57;7.05;;;0.98;;
22417;SDS011;11376;50.932;4.442;2023-05-16T13:34:23;6.00;;;1.15;;
22417;SDS011;11376;50.932;4.442;2023-05-16T13:36:48;6.35;;;1.10;;
22417;SDS011;11376;50.932;4.442;2023-05-16T13:39:14;8.25;;;1.00;;
22417;SDS011;11376;50.932;4.442;2023-05-16T13:41:40;5.32;;;0.85;;
22417;SDS011;11376;50.932;4.442;2023-05-16T13:44:06;5.60;;;1.15;;
22417;SDS011;11376;50.932;4.442;2023-05-16T13:46:32;3.92;;;0.93;;
22417;SDS011;11376;50.932;4.442;2023-05-16T13:48:58;6.75;;;0.88;;
22417;SDS011;11376;50.932;4.442;2023-05-16T13:51:24;4.13;;;0.80;;
22417;SDS011;11376;50.932;4.442;2023-05-16T13:53:50;7.05;;;1.20;;
22417;SDS011;11376;50.932;4.442;2023-05-16T13:56:16;7.25;;;0.90;;
22417;SDS011;11376;50.932;4.442;2023-05-16T13:58:41;5.82;;;1.10;;
22417;SDS011;11376;50.932;4.442;2023-05-16T14:01:07;6.38;;;0.90;;
22417;SDS011;11376;50.932;4.442;2023-05-16T14:03:33;6.13;;;1.00;;
22417;SDS011;11376;50.932;4.442;2023-05-16T14:06:01;4.60;;;0.90;;
22417;SDS011;11376;50.932;4.442;2023-05-16T14:08:27;6.72;;;1.00;;
22417;SDS011;11376;50.932;4.442;2023-05-16T14:10:53;6.47;;;1.13;;
22417;SDS011;11376;50.932;4.442;2023-05-16T14:13:19;7.53;;;1.05;;
22417;SDS011;11376;50.932;4.442;2023-05-16T14:15:45;6.25;;;1.25;;
22417;SDS011;11376;50.932;4.442;2023-05-16T14:18:11;5.03;;;0.82;;
22417;SDS011;11376;50.932;4.442;2023-05-16T14:20:38;5.20;;;0.73;;
22417;SDS011;11376;50.932;4.442;2023-05-16T14:23:03;5.05;;;0.90;;
22417;SDS011;11376;50.932;4.442;2023-05-16T14:25:29;4.32;;;0.88;;
22417;SDS011;11376;50.932;4.442;2023-05-16T14:27:56;6.03;;;0.82;;
22417;SDS011;11376;50.932;4.442;2023-05-16T14:30:21;4.47;;;0.70;;
22417;SDS011;11376;50.932;4.442;2023-05-16T14:32:47;6.18;;;1.05;;
22417;SDS011;11376;50.932;4.442;2023-05-16T14:35:13;4.82;;;0.85;;
22417;SDS011;11376;50.932;4.442;2023-05-16T14:37:40;4.90;;;0.80;;
22417;SDS011;11376;50.932;4.442;2023-05-16T14:40:06;7.13;;;1.10;;
22417;SDS011;11376;50.932;4.442;2023-05-16T14:42:33;5.20;;;0.80;;
22417;SDS011;11376;50.932;4.442;2023-05-16T14:44:59;3.63;;;0.68;;
22417;SDS011;11376;50.932;4.442;2023-05-16T14:47:25;4.40;;;0.85;;
22417;SDS011;11376;50.932;4.442;2023-05-16T14:49:52;3.50;;;0.90;;
22417;SDS011;11376;50.932;4.442;2023-05-16T14:52:18;4.70;;;0.88;;
22417;SDS011;11376;50.932;4.442;2023-05-16T14:54:44;4.45;;;0.90;;
22417;SDS011;11376;50.932;4.442;2023-05-16T14:57:10;5.55;;;0.90;;
22417;SDS011;11376;50.932;4.442;2023-05-16T14:59:36;5.20;;;0.77;;
22417;SDS011;11376;50.932;4.442;2023-05-16T15:02:01;5.85;;;1.00;;
22417;SDS011;11376;50.932;4.442;2023-05-16T15:04:28;4.90;;;1.00;;
22417;SDS011;11376;50.932;4.442;2023-05-16T15:06:54;5.82;;;0.90;;
22417;SDS011;11376;50.932;4.442;2023-05-16T15:09:20;3.95;;;0.80;;
22417;SDS011;11376;50.932;4.442;2023-05-16T15:11:46;7.32;;;0.90;;
22417;SDS011;11376;50.932;4.442;2023-05-16T15:14:11;3.70;;;1.02;;